sensor_id;sensor_type;location;lat;lon;timestamp;P1;durP1;ratioP1;P2;durP2;ratioP2
24650;SDS011;12783;48.824;8.662;2022-11-21T00:01:01;3.85;;;0.90;;
24650;SDS011;12783;48.824;8.662;2022-11-21T00:03:43;5.18;;;1.35;;
24650;SDS011;12783;48.824;8.662;2022-11-21T00:06:10;4.57;;;1.20;;
24650;SDS011;12783;48.824;8.662;2022-11-21T00:08:36;9.10;;;2.10;;
24650;SDS011;12783;48.824;8.662;2022-11-21T00:11:03;5.75;;;1.20;;
24650;SDS011;12783;48.824;8.662;2022-11-21T00:13:30;6.53;;;1.67;;
24650;SDS011;12783;48.824;8.662;2022-11-21T00:16:01;5.55;;;1.30;;
24650;SDS011;12783;48.824;8.662;2022-11-21T00:18:33;6.40;;;1.27;;
24650;SDS011;12783;48.824;8.662;2022-11-21T00:21:06;5.53;;;1.83;;
24650;SDS011;12783;48.824;8.662;2022-11-21T00:23:34;14.48;;;1.67;;
24650;SDS011;12783;48.824;8.662;2022-11-21T00:26:07;6.93;;;1.50;;
24650;SDS011;12783;48.824;8.662;2022-11-21T00:28:35;9.38;;;1.88;;
24650;SDS011;12783;48.824;8.662;2022-11-21T00:31:02;5.55;;;1.42;;
24650;SDS011;12783;48.824;8.662;2022-11-21T00:33:30;8.10;;;1.80;;
24650;SDS011;12783;48.824;8.662;2022-11-21T00:35:57;9.98;;;2.15;;
24650;SDS011;12783;48.824;8.662;2022-11-21T00:38:25;14.77;;;2.10;;
24650;SDS011;12783;48.824;8.662;2022-11-21T00:40:52;9.82;;;1.92;;
24650;SDS011;12783;48.824;8.662;2022-11-21T00:43:19;7.68;;;1.80;;
24650;SDS011;12783;48.824;8.662;2022-11-21T00:45:46;8.05;;;1.67;;
24650;SDS011;12783;48.824;8.662;2022-11-21T00:48:12;11.82;;;1.80;;
24650;SDS011;12783;48.824;8.662;2022-11-21T00:50:39;16.02;;;1.83;;
24650;SDS011;12783;48.824;8.662;2022-11-21T00:53:06;9.90;;;1.92;;
24650;SDS011;12783;48.824;8.662;2022-11-21T00:55:32;11.05;;;2.10;;
24650;SDS011;12783;48.824;8.662;2022-11-21T00:58:02;9.85;;;1.75;;
24650;SDS011;12783;48.824;8.662;2022-11-21T01:00:28;16.38;;;1.88;;
24650;SDS011;12783;48.824;8.662;2022-11-21T01:02:55;8.43;;;1.65;;
24650;SDS011;12783;48.824;8.662;2022-11-21T01:05:22;15.60;;;2.13;;
24650;SDS011;12783;48.824;8.662;2022-11-21T01:07:48;4.85;;;1.13;;
24650;SDS011;12783;48.824;8.662;2022-11-21T01:10:15;6.07;;;0.90;;
24650;SDS011;12783;48.824;8.662;2022-11-21T01:12:42;8.02;;;1.48;;
24650;SDS011;12783;48.824;8.662;2022-11-21T01:15:09;2.28;;;1.13;;
24650;SDS011;12783;48.824;8.662;2022-11-21T01:17:36;6.05;;;0.80;;
24650;SDS011;12783;48.824;8.662;2022-11-21T01:20:03;2.70;;;0.65;;
24650;SDS011;12783;48.824;8.662;2022-11-21T01:22:31;1.38;;;0.30;;
24650;SDS011;12783;48.824;8.662;2022-11-21T01:24:58;2.85;;;0.50;;
24650;SDS011;12783;48.824;8.662;2022-11-21T01:27:25;3.47;;;0.60;;
24650;SDS011;12783;48.824;8.662;2022-11-21T01:29:51;1.90;;;0.80;;
24650;SDS011;12783;48.824;8.662;2022-11-21T01:32:18;2.58;;;0.40;;
24650;SDS011;12783;48.824;8.662;2022-11-21T01:34:45;0.93;;;0.50;;
24650;SDS011;12783;48.824;8.662;2022-11-21T01:37:11;1.83;;;0.43;;
24650;SDS011;12783;48.824;8.662;2022-11-21T01:39:38;1.17;;;0.60;;
24650;SDS011;12783;48.824;8.662;2022-11-21T01:42:05;0.88;;;0.50;;
24650;SDS011;12783;48.824;8.662;2022-11-21T01:44:45;1.20;;;0.45;;
24650;SDS011;12783;48.824;8.662;2022-11-21T01:47:16;1.05;;;0.40;;
24650;SDS011;12783;48.824;8.662;2022-11-21T01:49:43;2.78;;;0.80;;
24650;SDS011;12783;48.824;8.662;2022-11-21T01:52:12;1.27;;;0.45;;
24650;SDS011;12783;48.824;8.662;2022-11-21T01:54:49;1.85;;;0.50;;
24650;SDS011;12783;48.824;8.662;2022-11-21T02:02:26;0.10;;;0.10;;
24650;SDS011;12783;48.824;8.662;2022-11-21T02:04:55;0.68;;;0.40;;
24650;SDS011;12783;48.824;8.662;2022-11-21T02:07:22;1.75;;;0.40;;
24650;SDS011;12783;48.824;8.662;2022-11-21T02:09:51;1.75;;;0.45;;
24650;SDS011;12783;48.824;8.662;2022-11-21T02:12:22;0.40;;;0.40;;
24650;SDS011;12783;48.824;8.662;2022-11-21T02:14:52;0.30;;;0.30;;
24650;SDS011;12783;48.824;8.662;2022-11-21T02:17:20;0.40;;;0.30;;
24650;SDS011;12783;48.824;8.662;2022-11-21T02:19:53;0.30;;;0.30;;
24650;SDS011;12783;48.824;8.662;2022-11-21T02:25:23;1.67;;;0.43;;
24650;SDS011;12783;48.824;8.662;2022-11-21T02:27:53;1.80;;;0.65;;
24650;SDS011;12783;48.824;8.662;2022-11-21T02:30:23;0.82;;;0.80;;
24650;SDS011;12783;48.824;8.662;2022-11-21T02:32:50;1.75;;;0.60;;
24650;SDS011;12783;48.824;8.662;2022-11-21T02:35:17;5.03;;;0.70;;
24650;SDS011;12783;48.824;8.662;2022-11-21T02:37:47;2.08;;;0.50;;
24650;SDS011;12783;48.824;8.662;2022-11-21T02:40:40;0.88;;;0.52;;
24650;SDS011;12783;48.824;8.662;2022-11-21T02:43:10;3.20;;;0.60;;
24650;SDS011;12783;48.824;8.662;2022-11-21T02:45:43;1.33;;;0.40;;
24650;SDS011;12783;48.824;8.662;2022-11-21T02:48:11;2.58;;;0.40;;
24650;SDS011;12783;48.824;8.662;2022-11-21T02:50:39;1.75;;;0.38;;
24650;SDS011;12783;48.824;8.662;2022-11-21T02:53:08;2.40;;;0.70;;
24650;SDS011;12783;48.824;8.662;2022-11-21T02:55:36;0.93;;;0.50;;
24650;SDS011;12783;48.824;8.662;2022-11-21T02:58:03;0.65;;;0.40;;
24650;SDS011;12783;48.824;8.662;2022-11-21T03:00:31;2.72;;;0.95;;
24650;SDS011;12783;48.824;8.662;2022-11-21T03:02:59;2.20;;;0.60;;
24650;SDS011;12783;48.824;8.662;2022-11-21T03:05:26;0.40;;;0.40;;
24650;SDS011;12783;48.824;8.662;2022-11-21T03:07:53;1.80;;;0.55;;
24650;SDS011;12783;48.824;8.662;2022-11-21T03:10:19;5.60;;;0.80;;
24650;SDS011;12783;48.824;8.662;2022-11-21T03:12:46;1.77;;;0.90;;
24650;SDS011;12783;48.824;8.662;2022-11-21T03:15:14;2.80;;;0.68;;
24650;SDS011;12783;48.824;8.662;2022-11-21T03:17:41;3.10;;;1.00;;
24650;SDS011;12783;48.824;8.662;2022-11-21T03:20:08;5.60;;;1.10;;
24650;SDS011;12783;48.824;8.662;2022-11-21T03:22:35;8.73;;;1.40;;
24650;SDS011;12783;48.824;8.662;2022-11-21T03:25:02;4.82;;;1.17;;
24650;SDS011;12783;48.824;8.662;2022-11-21T03:27:29;6.97;;;1.15;;
24650;SDS011;12783;48.824;8.662;2022-11-21T03:29:55;8.63;;;1.30;;
24650;SDS011;12783;48.824;8.662;2022-11-21T03:32:22;6.00;;;1.25;;
24650;SDS011;12783;48.824;8.662;2022-11-21T03:34:49;2.35;;;1.10;;
24650;SDS011;12783;48.824;8.662;2022-11-21T03:37:15;4.10;;;1.33;;
24650;SDS011;12783;48.824;8.662;2022-11-21T03:39:42;3.30;;;1.23;;
24650;SDS011;12783;48.824;8.662;2022-11-21T03:42:09;5.75;;;1.23;;
24650;SDS011;12783;48.824;8.662;2022-11-21T03:44:36;7.65;;;1.30;;
24650;SDS011;12783;48.824;8.662;2022-11-21T03:47:02;7.38;;;1.38;;
24650;SDS011;12783;48.824;8.662;2022-11-21T03:49:29;4.40;;;1.20;;
24650;SDS011;12783;48.824;8.662;2022-11-21T03:51:56;3.60;;;1.10;;
24650;SDS011;12783;48.824;8.662;2022-11-21T03:54:23;4.10;;;1.40;;
24650;SDS011;12783;48.824;8.662;2022-11-21T03:56:49;6.18;;;1.10;;
24650;SDS011;12783;48.824;8.662;2022-11-21T03:59:16;7.68;;;1.42;;
24650;SDS011;12783;48.824;8.662;2022-11-21T04:01:43;2.95;;;1.48;;
24650;SDS011;12783;48.824;8.662;2022-11-21T04:04:10;9.27;;;1.58;;
24650;SDS011;12783;48.824;8.662;2022-11-21T04:06:36;6.70;;;1.60;;
24650;SDS011;12783;48.824;8.662;2022-11-21T04:09:03;10.32;;;1.88;;
24650;SDS011;12783;48.824;8.662;2022-11-21T04:11:30;6.13;;;1.80;;
24650;SDS011;12783;48.824;8.662;2022-11-21T04:13:57;14.13;;;2.20;;
24650;SDS011;12783;48.824;8.662;2022-11-21T04:16:23;15.57;;;2.05;;
24650;SDS011;12783;48.824;8.662;2022-11-21T04:18:50;4.85;;;2.10;;
24650;SDS011;12783;48.824;8.662;2022-11-21T04:21:17;7.93;;;2.42;;
24650;SDS011;12783;48.824;8.662;2022-11-21T04:23:44;7.22;;;2.28;;
24650;SDS011;12783;48.824;8.662;2022-11-21T04:26:11;6.50;;;2.33;;
24650;SDS011;12783;48.824;8.662;2022-11-21T04:28:37;8.40;;;2.40;;
24650;SDS011;12783;48.824;8.662;2022-11-21T04:31:04;13.85;;;2.47;;
24650;SDS011;12783;48.824;8.662;2022-11-21T04:33:36;8.65;;;2.72;;
24650;SDS011;12783;48.824;8.662;2022-11-21T04:36:04;14.90;;;2.90;;
24650;SDS011;12783;48.824;8.662;2022-11-21T04:38:35;8.10;;;3.10;;
24650;SDS011;12783;48.824;8.662;2022-11-21T04:41:02;4.25;;;2.05;;
24650;SDS011;12783;48.824;8.662;2022-11-21T04:43:30;10.13;;;2.55;;
24650;SDS011;12783;48.824;8.662;2022-11-21T04:45:56;10.88;;;2.50;;
24650;SDS011;12783;48.824;8.662;2022-11-21T04:48:23;6.80;;;2.40;;
24650;SDS011;12783;48.824;8.662;2022-11-21T04:50:50;14.13;;;2.35;;
24650;SDS011;12783;48.824;8.662;2022-11-21T04:53:17;4.30;;;2.05;;
24650;SDS011;12783;48.824;8.662;2022-11-21T04:55:43;5.70;;;2.40;;
24650;SDS011;12783;48.824;8.662;2022-11-21T04:58:10;6.03;;;2.30;;
24650;SDS011;12783;48.824;8.662;2022-11-21T05:00:37;2.95;;;1.67;;
24650;SDS011;12783;48.824;8.662;2022-11-21T05:03:04;7.70;;;1.55;;
24650;SDS011;12783;48.824;8.662;2022-11-21T05:05:31;5.18;;;1.55;;
24650;SDS011;12783;48.824;8.662;2022-11-21T05:07:58;10.95;;;1.70;;
24650;SDS011;12783;48.824;8.662;2022-11-21T05:10:25;6.80;;;1.98;;
24650;SDS011;12783;48.824;8.662;2022-11-21T05:12:55;8.68;;;1.67;;
24650;SDS011;12783;48.824;8.662;2022-11-21T05:15:41;7.65;;;1.73;;
24650;SDS011;12783;48.824;8.662;2022-11-21T05:18:08;6.50;;;1.90;;
24650;SDS011;12783;48.824;8.662;2022-11-21T05:20:35;8.35;;;1.50;;
24650;SDS011;12783;48.824;8.662;2022-11-21T05:23:02;5.32;;;1.27;;
24650;SDS011;12783;48.824;8.662;2022-11-21T05:25:29;2.03;;;1.20;;
24650;SDS011;12783;48.824;8.662;2022-11-21T05:27:56;4.32;;;1.25;;
24650;SDS011;12783;48.824;8.662;2022-11-21T05:30:22;4.35;;;1.30;;
24650;SDS011;12783;48.824;8.662;2022-11-21T05:32:49;3.42;;;1.73;;
24650;SDS011;12783;48.824;8.662;2022-11-21T05:35:16;3.70;;;1.92;;
24650;SDS011;12783;48.824;8.662;2022-11-21T05:37:43;14.98;;;3.15;;
24650;SDS011;12783;48.824;8.662;2022-11-21T05:40:10;10.75;;;2.83;;
24650;SDS011;12783;48.824;8.662;2022-11-21T05:42:38;13.27;;;3.22;;
24650;SDS011;12783;48.824;8.662;2022-11-21T05:45:24;12.45;;;3.83;;
24650;SDS011;12783;48.824;8.662;2022-11-21T05:47:50;11.00;;;3.67;;
24650;SDS011;12783;48.824;8.662;2022-11-21T05:50:17;12.95;;;3.88;;
24650;SDS011;12783;48.824;8.662;2022-11-21T05:52:44;20.27;;;3.97;;
24650;SDS011;12783;48.824;8.662;2022-11-21T05:55:11;18.55;;;4.28;;
24650;SDS011;12783;48.824;8.662;2022-11-21T05:57:37;17.77;;;3.95;;
24650;SDS011;12783;48.824;8.662;2022-11-21T06:00:04;11.68;;;3.53;;
24650;SDS011;12783;48.824;8.662;2022-11-21T06:02:31;11.57;;;3.67;;
24650;SDS011;12783;48.824;8.662;2022-11-21T06:05:17;15.25;;;3.60;;
24650;SDS011;12783;48.824;8.662;2022-11-21T06:07:43;11.75;;;3.80;;
24650;SDS011;12783;48.824;8.662;2022-11-21T06:10:10;19.40;;;3.60;;
24650;SDS011;12783;48.824;8.662;2022-11-21T06:12:37;15.00;;;3.40;;
24650;SDS011;12783;48.824;8.662;2022-11-21T06:15:04;12.05;;;3.50;;
24650;SDS011;12783;48.824;8.662;2022-11-21T06:17:31;17.17;;;3.20;;
24650;SDS011;12783;48.824;8.662;2022-11-21T06:19:58;12.98;;;3.38;;
24650;SDS011;12783;48.824;8.662;2022-11-21T06:22:24;12.40;;;2.78;;
24650;SDS011;12783;48.824;8.662;2022-11-21T06:24:51;10.40;;;2.63;;
24650;SDS011;12783;48.824;8.662;2022-11-21T06:27:18;9.00;;;2.15;;
24650;SDS011;12783;48.824;8.662;2022-11-21T06:29:45;10.30;;;2.53;;
24650;SDS011;12783;48.824;8.662;2022-11-21T06:32:11;12.68;;;2.60;;
24650;SDS011;12783;48.824;8.662;2022-11-21T06:34:38;14.02;;;2.85;;
24650;SDS011;12783;48.824;8.662;2022-11-21T06:37:05;13.95;;;2.58;;
24650;SDS011;12783;48.824;8.662;2022-11-21T06:39:32;14.13;;;2.33;;
24650;SDS011;12783;48.824;8.662;2022-11-21T06:41:59;5.88;;;2.35;;
24650;SDS011;12783;48.824;8.662;2022-11-21T06:44:26;9.57;;;2.40;;
24650;SDS011;12783;48.824;8.662;2022-11-21T06:46:54;14.85;;;2.72;;
24650;SDS011;12783;48.824;8.662;2022-11-21T06:49:20;13.27;;;2.80;;
24650;SDS011;12783;48.824;8.662;2022-11-21T06:51:47;15.68;;;2.55;;
24650;SDS011;12783;48.824;8.662;2022-11-21T06:54:14;14.32;;;2.38;;
24650;SDS011;12783;48.824;8.662;2022-11-21T06:56:53;6.90;;;2.47;;
24650;SDS011;12783;48.824;8.662;2022-11-21T06:59:20;12.05;;;2.60;;
24650;SDS011;12783;48.824;8.662;2022-11-21T07:01:47;11.43;;;2.00;;
24650;SDS011;12783;48.824;8.662;2022-11-21T07:04:14;8.90;;;1.70;;
24650;SDS011;12783;48.824;8.662;2022-11-21T07:06:41;8.40;;;2.03;;
24650;SDS011;12783;48.824;8.662;2022-11-21T07:09:08;5.97;;;2.28;;
24650;SDS011;12783;48.824;8.662;2022-11-21T07:11:55;13.80;;;2.10;;
24650;SDS011;12783;48.824;8.662;2022-11-21T07:14:41;6.95;;;2.03;;
24650;SDS011;12783;48.824;8.662;2022-11-21T07:17:10;12.07;;;2.05;;
24650;SDS011;12783;48.824;8.662;2022-11-21T07:19:37;7.20;;;1.67;;
24650;SDS011;12783;48.824;8.662;2022-11-21T07:22:06;7.63;;;1.60;;
24650;SDS011;12783;48.824;8.662;2022-11-21T07:24:33;5.90;;;1.25;;
24650;SDS011;12783;48.824;8.662;2022-11-21T07:27:00;9.73;;;2.35;;
24650;SDS011;12783;48.824;8.662;2022-11-21T07:29:27;10.02;;;1.85;;
24650;SDS011;12783;48.824;8.662;2022-11-21T07:31:55;9.43;;;1.80;;
24650;SDS011;12783;48.824;8.662;2022-11-21T07:34:22;5.38;;;1.70;;
24650;SDS011;12783;48.824;8.662;2022-11-21T07:36:49;8.82;;;2.10;;
24650;SDS011;12783;48.824;8.662;2022-11-21T07:39:15;5.75;;;2.00;;
24650;SDS011;12783;48.824;8.662;2022-11-21T07:41:42;7.68;;;1.70;;
24650;SDS011;12783;48.824;8.662;2022-11-21T07:44:09;8.35;;;1.63;;
24650;SDS011;12783;48.824;8.662;2022-11-21T07:46:36;6.55;;;1.35;;
24650;SDS011;12783;48.824;8.662;2022-11-21T07:49:02;7.53;;;1.90;;
24650;SDS011;12783;48.824;8.662;2022-11-21T07:51:29;10.65;;;1.50;;
24650;SDS011;12783;48.824;8.662;2022-11-21T07:53:56;6.22;;;1.85;;
24650;SDS011;12783;48.824;8.662;2022-11-21T07:56:22;8.30;;;1.83;;
24650;SDS011;12783;48.824;8.662;2022-11-21T07:58:51;9.20;;;1.80;;
24650;SDS011;12783;48.824;8.662;2022-11-21T08:01:18;6.07;;;1.73;;
24650;SDS011;12783;48.824;8.662;2022-11-21T08:03:45;5.25;;;1.67;;
24650;SDS011;12783;48.824;8.662;2022-11-21T08:06:12;9.32;;;1.52;;
24650;SDS011;12783;48.824;8.662;2022-11-21T08:08:39;9.20;;;1.50;;
24650;SDS011;12783;48.824;8.662;2022-11-21T08:11:06;7.75;;;1.88;;
24650;SDS011;12783;48.824;8.662;2022-11-21T08:13:33;7.80;;;1.77;;
24650;SDS011;12783;48.824;8.662;2022-11-21T08:16:01;6.65;;;1.50;;
24650;SDS011;12783;48.824;8.662;2022-11-21T08:18:29;10.13;;;1.45;;
24650;SDS011;12783;48.824;8.662;2022-11-21T08:20:56;11.13;;;1.70;;
24650;SDS011;12783;48.824;8.662;2022-11-21T08:23:25;7.22;;;1.38;;
24650;SDS011;12783;48.824;8.662;2022-11-21T08:25:52;9.18;;;2.00;;
24650;SDS011;12783;48.824;8.662;2022-11-21T08:28:18;8.73;;;2.00;;
24650;SDS011;12783;48.824;8.662;2022-11-21T08:30:45;9.60;;;1.75;;
24650;SDS011;12783;48.824;8.662;2022-11-21T08:33:12;12.10;;;2.08;;
24650;SDS011;12783;48.824;8.662;2022-11-21T08:35:39;11.57;;;1.55;;
24650;SDS011;12783;48.824;8.662;2022-11-21T08:38:07;12.65;;;1.67;;
24650;SDS011;12783;48.824;8.662;2022-11-21T08:40:34;10.65;;;2.03;;
24650;SDS011;12783;48.824;8.662;2022-11-21T08:43:03;7.53;;;1.55;;
24650;SDS011;12783;48.824;8.662;2022-11-21T08:45:32;5.45;;;1.65;;
24650;SDS011;12783;48.824;8.662;2022-11-21T08:47:59;7.25;;;1.40;;
24650;SDS011;12783;48.824;8.662;2022-11-21T08:50:26;10.30;;;1.65;;
24650;SDS011;12783;48.824;8.662;2022-11-21T08:53:00;10.85;;;1.98;;
24650;SDS011;12783;48.824;8.662;2022-11-21T08:55:27;7.80;;;1.63;;
24650;SDS011;12783;48.824;8.662;2022-11-21T08:57:55;9.15;;;1.88;;
24650;SDS011;12783;48.824;8.662;2022-11-21T09:00:21;9.60;;;1.45;;
24650;SDS011;12783;48.824;8.662;2022-11-21T09:02:48;10.32;;;1.65;;
24650;SDS011;12783;48.824;8.662;2022-11-21T09:05:15;10.90;;;2.47;;
24650;SDS011;12783;48.824;8.662;2022-11-21T09:07:42;6.22;;;1.98;;
24650;SDS011;12783;48.824;8.662;2022-11-21T09:10:09;6.68;;;1.15;;
24650;SDS011;12783;48.824;8.662;2022-11-21T09:12:36;4.38;;;1.00;;
24650;SDS011;12783;48.824;8.662;2022-11-21T09:15:03;7.43;;;1.23;;
24650;SDS011;12783;48.824;8.662;2022-11-21T09:17:49;9.05;;;1.65;;
24650;SDS011;12783;48.824;8.662;2022-11-21T09:20:32;4.95;;;1.02;;
24650;SDS011;12783;48.824;8.662;2022-11-21T09:23:03;7.25;;;1.08;;
24650;SDS011;12783;48.824;8.662;2022-11-21T09:25:31;7.10;;;1.35;;
24650;SDS011;12783;48.824;8.662;2022-11-21T09:27:59;4.30;;;1.10;;
24650;SDS011;12783;48.824;8.662;2022-11-21T09:30:27;4.47;;;1.35;;
24650;SDS011;12783;48.824;8.662;2022-11-21T09:32:57;8.20;;;1.38;;
24650;SDS011;12783;48.824;8.662;2022-11-21T09:35:25;8.98;;;1.55;;
24650;SDS011;12783;48.824;8.662;2022-11-21T09:37:52;5.88;;;1.50;;
24650;SDS011;12783;48.824;8.662;2022-11-21T09:40:19;6.70;;;1.30;;
24650;SDS011;12783;48.824;8.662;2022-11-21T09:45:32;10.82;;;1.70;;
24650;SDS011;12783;48.824;8.662;2022-11-21T09:48:01;4.68;;;1.27;;
24650;SDS011;12783;48.824;8.662;2022-11-21T09:50:30;6.50;;;1.30;;
24650;SDS011;12783;48.824;8.662;2022-11-21T09:55:34;9.30;;;2.00;;
24650;SDS011;12783;48.824;8.662;2022-11-21T09:58:31;8.15;;;1.65;;
24650;SDS011;12783;48.824;8.662;2022-11-21T10:01:03;8.13;;;1.55;;
24650;SDS011;12783;48.824;8.662;2022-11-21T10:03:35;6.72;;;1.60;;
24650;SDS011;12783;48.824;8.662;2022-11-21T10:06:16;7.38;;;1.58;;
24650;SDS011;12783;48.824;8.662;2022-11-21T10:08:54;9.35;;;1.38;;
24650;SDS011;12783;48.824;8.662;2022-11-21T10:23:09;4.47;;;1.20;;
24650;SDS011;12783;48.824;8.662;2022-11-21T10:25:49;6.38;;;1.15;;
24650;SDS011;12783;48.824;8.662;2022-11-21T10:30:53;5.07;;;1.30;;
24650;SDS011;12783;48.824;8.662;2022-11-21T10:33:30;8.02;;;1.50;;
24650;SDS011;12783;48.824;8.662;2022-11-21T10:35:59;11.40;;;1.55;;
24650;SDS011;12783;48.824;8.662;2022-11-21T10:38:33;11.07;;;1.45;;
24650;SDS011;12783;48.824;8.662;2022-11-21T10:41:22;4.28;;;1.10;;
24650;SDS011;12783;48.824;8.662;2022-11-21T10:46:53;3.67;;;1.35;;
24650;SDS011;12783;48.824;8.662;2022-11-21T10:49:21;12.40;;;1.30;;
24650;SDS011;12783;48.824;8.662;2022-11-21T10:52:03;9.30;;;1.83;;
24650;SDS011;12783;48.824;8.662;2022-11-21T10:54:32;10.05;;;1.52;;
24650;SDS011;12783;48.824;8.662;2022-11-21T10:57:38;8.10;;;1.48;;
24650;SDS011;12783;48.824;8.662;2022-11-21T11:02:41;2.33;;;0.93;;
24650;SDS011;12783;48.824;8.662;2022-11-21T11:07:41;4.75;;;0.80;;
24650;SDS011;12783;48.824;8.662;2022-11-21T11:10:20;10.63;;;1.58;;
24650;SDS011;12783;48.824;8.662;2022-11-21T11:12:53;3.28;;;1.15;;
24650;SDS011;12783;48.824;8.662;2022-11-21T11:16:09;7.18;;;1.05;;
24650;SDS011;12783;48.824;8.662;2022-11-21T11:18:57;3.90;;;0.88;;
24650;SDS011;12783;48.824;8.662;2022-11-21T11:29:15;5.45;;;0.90;;
24650;SDS011;12783;48.824;8.662;2022-11-21T11:32:11;4.55;;;1.30;;
24650;SDS011;12783;48.824;8.662;2022-11-21T11:37:18;8.13;;;1.20;;
24650;SDS011;12783;48.824;8.662;2022-11-21T11:45:59;6.22;;;1.33;;
24650;SDS011;12783;48.824;8.662;2022-11-21T11:49:00;5.30;;;1.30;;
24650;SDS011;12783;48.824;8.662;2022-11-21T11:51:53;9.57;;;1.27;;
24650;SDS011;12783;48.824;8.662;2022-11-21T11:54:26;6.07;;;1.23;;
24650;SDS011;12783;48.824;8.662;2022-11-21T11:56:57;8.30;;;1.15;;
24650;SDS011;12783;48.824;8.662;2022-11-21T11:59:30;4.35;;;1.00;;
24650;SDS011;12783;48.824;8.662;2022-11-21T12:02:21;5.95;;;1.38;;
24650;SDS011;12783;48.824;8.662;2022-11-21T12:05:08;8.02;;;1.45;;
24650;SDS011;12783;48.824;8.662;2022-11-21T12:07:41;5.18;;;1.15;;
24650;SDS011;12783;48.824;8.662;2022-11-21T12:10:38;7.00;;;0.82;;
24650;SDS011;12783;48.824;8.662;2022-11-21T12:13:28;6.88;;;1.05;;
24650;SDS011;12783;48.824;8.662;2022-11-21T12:15:56;5.18;;;1.08;;
24650;SDS011;12783;48.824;8.662;2022-11-21T12:21:16;7.15;;;1.23;;
24650;SDS011;12783;48.824;8.662;2022-11-21T12:23:47;7.38;;;1.40;;
24650;SDS011;12783;48.824;8.662;2022-11-21T12:32:04;3.35;;;1.02;;
24650;SDS011;12783;48.824;8.662;2022-11-21T12:37:39;7.18;;;1.33;;
24650;SDS011;12783;48.824;8.662;2022-11-21T12:46:15;5.07;;;1.00;;
24650;SDS011;12783;48.824;8.662;2022-11-21T12:48:55;8.27;;;1.40;;
24650;SDS011;12783;48.824;8.662;2022-11-21T12:51:53;4.20;;;1.00;;
24650;SDS011;12783;48.824;8.662;2022-11-21T12:54:56;4.45;;;1.35;;
24650;SDS011;12783;48.824;8.662;2022-11-21T12:57:45;3.63;;;1.20;;
24650;SDS011;12783;48.824;8.662;2022-11-21T13:06:14;10.20;;;1.45;;
24650;SDS011;12783;48.824;8.662;2022-11-21T13:08:43;6.05;;;1.10;;
24650;SDS011;12783;48.824;8.662;2022-11-21T13:11:32;7.20;;;1.33;;
24650;SDS011;12783;48.824;8.662;2022-11-21T13:17:06;9.65;;;1.55;;
24650;SDS011;12783;48.824;8.662;2022-11-21T13:19:46;6.82;;;1.55;;
24650;SDS011;12783;48.824;8.662;2022-11-21T13:25:03;3.70;;;1.30;;
24650;SDS011;12783;48.824;8.662;2022-11-21T13:27:35;6.85;;;1.05;;
24650;SDS011;12783;48.824;8.662;2022-11-21T13:45:54;4.47;;;1.40;;
24650;SDS011;12783;48.824;8.662;2022-11-21T13:51:02;3.65;;;1.15;;
24650;SDS011;12783;48.824;8.662;2022-11-21T13:53:51;4.68;;;1.17;;
24650;SDS011;12783;48.824;8.662;2022-11-21T14:08:22;4.22;;;1.10;;
24650;SDS011;12783;48.824;8.662;2022-11-21T14:10:53;8.45;;;1.10;;
24650;SDS011;12783;48.824;8.662;2022-11-21T14:18:52;7.47;;;1.23;;
24650;SDS011;12783;48.824;8.662;2022-11-21T14:21:20;4.65;;;1.10;;
24650;SDS011;12783;48.824;8.662;2022-11-21T14:23:53;4.03;;;1.23;;
24650;SDS011;12783;48.824;8.662;2022-11-21T14:26:23;10.35;;;1.20;;
24650;SDS011;12783;48.824;8.662;2022-11-21T14:28:50;7.53;;;1.23;;
24650;SDS011;12783;48.824;8.662;2022-11-21T14:31:18;11.60;;;1.75;;
24650;SDS011;12783;48.824;8.662;2022-11-21T14:33:45;6.60;;;1.58;;
24650;SDS011;12783;48.824;8.662;2022-11-21T14:36:13;11.13;;;2.22;;
24650;SDS011;12783;48.824;8.662;2022-11-21T14:38:42;4.22;;;1.30;;
24650;SDS011;12783;48.824;8.662;2022-11-21T14:43:43;3.88;;;1.38;;
24650;SDS011;12783;48.824;8.662;2022-11-21T14:46:13;3.88;;;1.30;;
24650;SDS011;12783;48.824;8.662;2022-11-21T14:48:41;4.65;;;1.50;;
24650;SDS011;12783;48.824;8.662;2022-11-21T14:51:08;6.85;;;1.70;;
24650;SDS011;12783;48.824;8.662;2022-11-21T14:53:40;8.90;;;2.00;;
24650;SDS011;12783;48.824;8.662;2022-11-21T14:56:09;7.53;;;1.67;;
24650;SDS011;12783;48.824;8.662;2022-11-21T14:58:39;5.03;;;1.38;;
24650;SDS011;12783;48.824;8.662;2022-11-21T15:01:07;6.18;;;1.20;;
24650;SDS011;12783;48.824;8.662;2022-11-21T15:03:54;5.57;;;1.35;;
24650;SDS011;12783;48.824;8.662;2022-11-21T15:06:22;9.00;;;1.75;;
24650;SDS011;12783;48.824;8.662;2022-11-21T15:08:49;5.05;;;1.40;;
24650;SDS011;12783;48.824;8.662;2022-11-21T15:14:20;6.70;;;1.23;;
24650;SDS011;12783;48.824;8.662;2022-11-21T15:16:52;8.55;;;1.67;;
24650;SDS011;12783;48.824;8.662;2022-11-21T15:19:24;7.60;;;1.55;;
24650;SDS011;12783;48.824;8.662;2022-11-21T15:21:57;6.85;;;1.58;;
24650;SDS011;12783;48.824;8.662;2022-11-21T15:24:34;5.20;;;1.13;;
24650;SDS011;12783;48.824;8.662;2022-11-21T15:33:18;4.97;;;1.27;;
24650;SDS011;12783;48.824;8.662;2022-11-21T15:35:43;5.47;;;1.42;;
24650;SDS011;12783;48.824;8.662;2022-11-21T15:38:21;7.00;;;1.33;;
24650;SDS011;12783;48.824;8.662;2022-11-21T15:43:36;4.38;;;1.13;;
24650;SDS011;12783;48.824;8.662;2022-11-21T15:46:19;4.95;;;1.35;;
24650;SDS011;12783;48.824;8.662;2022-11-21T15:48:51;5.25;;;1.27;;
24650;SDS011;12783;48.824;8.662;2022-11-21T15:51:20;8.15;;;1.70;;
24650;SDS011;12783;48.824;8.662;2022-11-21T15:54:10;6.78;;;1.33;;
24650;SDS011;12783;48.824;8.662;2022-11-21T15:56:37;4.63;;;1.55;;
24650;SDS011;12783;48.824;8.662;2022-11-21T15:59:06;9.55;;;2.10;;
24650;SDS011;12783;48.824;8.662;2022-11-21T16:01:33;6.00;;;1.48;;
24650;SDS011;12783;48.824;8.662;2022-11-21T16:04:04;6.53;;;1.90;;
24650;SDS011;12783;48.824;8.662;2022-11-21T16:06:33;7.93;;;1.98;;
24650;SDS011;12783;48.824;8.662;2022-11-21T16:09:00;8.32;;;1.75;;
24650;SDS011;12783;48.824;8.662;2022-11-21T16:11:31;7.68;;;2.17;;
24650;SDS011;12783;48.824;8.662;2022-11-21T16:14:00;7.10;;;1.95;;
24650;SDS011;12783;48.824;8.662;2022-11-21T16:16:28;10.20;;;3.08;;
24650;SDS011;12783;48.824;8.662;2022-11-21T16:18:59;6.53;;;2.30;;
24650;SDS011;12783;48.824;8.662;2022-11-21T16:21:25;5.63;;;1.80;;
24650;SDS011;12783;48.824;8.662;2022-11-21T16:23:53;11.48;;;2.28;;
24650;SDS011;12783;48.824;8.662;2022-11-21T16:26:20;8.73;;;1.75;;
24650;SDS011;12783;48.824;8.662;2022-11-21T16:28:56;6.82;;;1.50;;
24650;SDS011;12783;48.824;8.662;2022-11-21T16:31:24;7.07;;;1.77;;
24650;SDS011;12783;48.824;8.662;2022-11-21T16:33:52;4.10;;;1.30;;
24650;SDS011;12783;48.824;8.662;2022-11-21T16:36:20;5.40;;;1.75;;
24650;SDS011;12783;48.824;8.662;2022-11-21T16:38:55;5.22;;;1.70;;
24650;SDS011;12783;48.824;8.662;2022-11-21T16:41:34;9.23;;;1.85;;
24650;SDS011;12783;48.824;8.662;2022-11-21T16:44:01;5.35;;;2.13;;
24650;SDS011;12783;48.824;8.662;2022-11-21T16:46:28;6.57;;;2.00;;
24650;SDS011;12783;48.824;8.662;2022-11-21T16:48:59;8.60;;;1.77;;
24650;SDS011;12783;48.824;8.662;2022-11-21T16:51:27;5.60;;;1.95;;
24650;SDS011;12783;48.824;8.662;2022-11-21T16:53:55;6.63;;;1.63;;
24650;SDS011;12783;48.824;8.662;2022-11-21T16:56:22;7.97;;;1.90;;
24650;SDS011;12783;48.824;8.662;2022-11-21T16:58:49;7.57;;;2.10;;
24650;SDS011;12783;48.824;8.662;2022-11-21T17:01:20;5.93;;;1.92;;
24650;SDS011;12783;48.824;8.662;2022-11-21T17:03:48;9.65;;;1.90;;
24650;SDS011;12783;48.824;8.662;2022-11-21T17:06:16;11.30;;;2.13;;
24650;SDS011;12783;48.824;8.662;2022-11-21T17:08:44;6.43;;;2.00;;
24650;SDS011;12783;48.824;8.662;2022-11-21T17:13:47;5.53;;;1.80;;
24650;SDS011;12783;48.824;8.662;2022-11-21T17:16:16;11.05;;;1.90;;
24650;SDS011;12783;48.824;8.662;2022-11-21T17:18:44;7.47;;;1.98;;